Time;durP1;ratioP1;P1;durP2;ratioP2;P2;SDS_P1;SDS_P2;PMS_P1;PMS_P2;Temp;Humidity;BMP_temperature;BMP_pressure;BME280_temperature;BME280_humidity;BME280_pressure;Samples;Min_cycle;Max_cycle;Signal;HPM_P1;HPM_P2
2021/08/02 00:01:48;;;;;;;22.85;10.73;;;;;;;;;;143726;567;46020;-53
2021/08/02 00:04:19;;;;;;;19.17;10.40;;;;;;;;;;143727;612;46020;-54
2021/08/02 00:06:52;;;;;;;22.08;10.98;;;;;;;;;;143730;583;46012;-53
2021/08/02 00:09:40;;;;;;;17.23;11.18;;;;;;;;;;143729;582;46020;-54
2021/08/02 00:12:10;;;;;;;15.02;10.15;;;;;;;;;;143728;564;46020;-53
2021/08/02 00:14:41;;;;;;;14.93;9.70;;;;;;;;;;143727;608;46020;-54
2021/08/02 00:17:08;;;;;;;18.00;10.48;;;;;;;;;;143730;612;46020;-54
2021/08/02 00:19:35;;;;;;;20.00;11.02;;;;;;;;;;143728;613;46021;-54
2021/08/02 00:22:02;;;;;;;25.55;12.55;;;;;;;;;;143728;607;46010;-54
2021/08/02 00:24:30;;;;;;;19.55;10.82;;;;;;;;;;143727;564;46018;-54
2021/08/02 00:26:57;;;;;;;15.57;10.10;;;;;;;;;;143730;638;46013;-53
2021/08/02 00:29:25;;;;;;;18.48;10.35;;;;;;;;;;143729;588;46020;-53
2021/08/02 00:31:52;;;;;;;17.90;10.65;;;;;;;;;;143726;632;46020;-53
2021/08/02 00:34:19;;;;;;;20.42;11.20;;;;;;;;;;143727;564;46019;-54
2021/08/02 00:36:57;;;;;;;20.35;11.52;;;;;;;;;;143732;592;46012;-53
2021/08/02 00:39:55;;;;;;;21.50;11.07;;;;;;;;;;143728;741;46022;-53
2021/08/02 00:42:57;;;;;;;17.60;10.25;;;;;;;;;;143727;578;46020;-54
2021/08/02 00:45:30;;;;;;;18.37;11.63;;;;;;;;;;143726;565;46021;-54
2021/08/02 00:48:09;;;;;;;18.30;11.68;;;;;;;;;;143732;655;46012;-54
2021/08/02 00:50:42;;;;;;;19.73;10.68;;;;;;;;;;143728;593;46022;-54
2021/08/02 00:53:17;;;;;;;22.15;11.12;;;;;;;;;;143727;587;46020;-53
2021/08/02 00:55:47;;;;;;;23.92;11.38;;;;;;;;;;143727;620;46020;-53
2021/08/02 00:58:18;;;;;;;27.05;12.32;;;;;;;;;;143730;624;46021;-54
2021/08/02 01:00:46;;;;;;;20.40;10.63;;;;;;;;;;143730;587;46020;-53
2021/08/02 01:03:16;;;;;;;21.35;11.18;;;;;;;;;;143728;638;46020;-54
2021/08/02 01:05:47;;;;;;;18.12;10.85;;;;;;;;;;143728;620;46018;-53
2021/08/02 01:08:36;;;;;;;25.12;11.82;;;;;;;;;;143731;603;46012;-53
2021/08/02 01:11:07;;;;;;;22.62;11.23;;;;;;;;;;143729;585;46020;-53
2021/08/02 01:13:36;;;;;;;26.58;10.75;;;;;;;;;;143726;585;46021;-53
2021/08/02 01:16:06;;;;;;;27.40;10.93;;;;;;;;;;143727;566;46018;-53
2021/08/02 01:18:34;;;;;;;21.58;10.45;;;;;;;;;;143730;563;46012;-53
2021/08/02 01:21:10;;;;;;;21.95;11.27;;;;;;;;;;143729;604;46023;-54
2021/08/02 01:23:38;;;;;;;30.02;10.45;;;;;;;;;;143727;673;46020;-53
2021/08/02 01:26:42;;;;;;;24.08;10.85;;;;;;;;;;143725;669;46020;-53
2021/08/02 01:29:45;;;;;;;27.37;11.03;;;;;;;;;;143732;574;46012;-53
2021/08/02 01:32:13;;;;;;;21.55;10.82;;;;;;;;;;143728;606;47020;-54
2021/08/02 01:34:40;;;;;;;28.25;13.45;;;;;;;;;;143727;596;46023;-54
2021/08/02 01:37:07;;;;;;;19.17;11.77;;;;;;;;;;143729;748;46018;-53
2021/08/02 01:39:34;;;;;;;27.70;12.93;;;;;;;;;;143729;601;46012;-54
2021/08/02 01:42:03;;;;;;;23.52;12.10;;;;;;;;;;143729;571;46021;-53
2021/08/02 01:44:30;;;;;;;19.77;11.02;;;;;;;;;;143729;617;46021;-53
2021/08/02 01:47:34;;;;;;;19.30;10.75;;;;;;;;;;143729;564;46018;-54
2021/08/02 01:50:32;;;;;;;20.73;11.85;;;;;;;;;;143729;564;46021;-52
2021/08/02 01:54:08;;;;;;;20.52;9.93;;;;;;;;;;143728;591;46020;-54
2021/08/02 01:57:08;;;;;;;27.00;11.85;;;;;;;;;;143727;605;46020;-53
2021/08/02 01:59:42;;;;;;;30.85;14.40;;;;;;;;;;143727;581;46020;-54
2021/08/02 02:02:12;;;;;;;25.02;13.25;;;;;;;;;;143733;600;46012;-54
2021/08/02 02:05:14;;;;;;;28.30;13.32;;;;;;;;;;143730;571;46021;-53
2021/08/02 02:07:53;;;;;;;20.37;11.05;;;;;;;;;;143727;573;46010;-54
2021/08/02 02:10:23;;;;;;;30.35;14.95;;;;;;;;;;143730;587;46018;-54
2021/08/02 02:12:50;;;;;;;19.50;10.90;;;;;;;;;;143731;670;46012;-54
2021/08/02 02:15:18;;;;;;;26.87;12.40;;;;;;;;;;143729;591;46020;-52
2021/08/02 02:17:46;;;;;;;22.13;10.55;;;;;;;;;;143727;596;46010;-54
2021/08/02 02:20:15;;;;;;;23.30;11.05;;;;;;;;;;143730;593;46018;-53
2021/08/02 02:22:43;;;;;;;25.20;12.95;;;;;;;;;;143732;605;46012;-54
2021/08/02 02:25:11;;;;;;;26.12;12.35;;;;;;;;;;143730;571;46020;-54
2021/08/02 02:27:40;;;;;;;26.58;10.82;;;;;;;;;;143728;570;46021;-53
2021/08/02 02:30:09;;;;;;;32.53;12.90;;;;;;;;;;143730;621;46018;-53
2021/08/02 02:32:38;;;;;;;21.52;12.02;;;;;;;;;;143731;591;46012;-53
2021/08/02 02:35:06;;;;;;;20.95;11.07;;;;;;;;;;143731;585;46021;-54
2021/08/02 02:37:34;;;;;;;21.30;9.70;;;;;;;;;;143728;580;46020;-53
2021/08/02 02:40:06;;;;;;;23.73;10.95;;;;;;;;;;143730;564;46018;-53
2021/08/02 02:42:34;;;;;;;27.77;13.65;;;;;;;;;;143730;588;46020;-53
2021/08/02 02:45:02;;;;;;;24.20;11.95;;;;;;;;;;143730;578;46020;-52
2021/08/02 02:47:32;;;;;;;25.83;11.10;;;;;;;;;;143728;610;46020;-53
2021/08/02 02:50:01;;;;;;;25.48;12.60;;;;;;;;;;143730;575;46018;-54
2021/08/02 02:52:30;;;;;;;21.85;10.60;;;;;;;;;;143731;594;46020;-53
2021/08/02 02:54:59;;;;;;;22.50;10.90;;;;;;;;;;143729;577;46022;-54
2021/08/02 02:57:26;;;;;;;21.35;11.10;;;;;;;;;;143728;569;46021;-54
2021/08/02 02:59:53;;;;;;;19.20;11.38;;;;;;;;;;143728;579;46020;-53
2021/08/02 03:02:22;;;;;;;18.92;10.52;;;;;;;;;;143730;569;46020;-53
2021/08/02 03:04:53;;;;;;;21.67;10.52;;;;;;;;;;143730;636;46020;-53
2021/08/02 03:07:21;;;;;;;28.42;10.90;;;;;;;;;;143726;585;47010;-54
2021/08/02 03:09:49;;;;;;;22.70;11.50;;;;;;;;;;143730;580;46018;-54
2021/08/02 03:12:17;;;;;;;20.08;9.57;;;;;;;;;;143731;564;46012;-53
2021/08/02 03:14:44;;;;;;;18.60;10.45;;;;;;;;;;143730;585;46023;-53
2021/08/02 03:17:11;;;;;;;18.02;9.80;;;;;;;;;;143729;655;46020;-53
2021/08/02 03:19:39;;;;;;;19.33;10.75;;;;;;;;;;143727;596;46021;-54
2021/08/02 03:22:22;;;;;;;24.95;10.60;;;;;;;;;;143733;566;46012;-53
2021/08/02 03:24:57;;;;;;;20.80;11.30;;;;;;;;;;143730;627;46020;-53
2021/08/02 03:27:29;;;;;;;35.28;14.57;;;;;;;;;;143729;571;46021;-53
2021/08/02 03:30:03;;;;;;;27.90;14.15;;;;;;;;;;143729;633;46018;-53
2021/08/02 03:32:34;;;;;;;35.37;15.07;;;;;;;;;;143729;710;46012;-54
2021/08/02 03:35:03;;;;;;;37.95;14.25;;;;;;;;;;143731;587;46020;-53
2021/08/02 03:37:32;;;;;;;34.13;15.30;;;;;;;;;;143728;577;46020;-52
2021/08/02 03:40:03;;;;;;;35.90;14.38;;;;;;;;;;143731;569;46018;-53
2021/08/02 03:42:32;;;;;;;31.30;13.85;;;;;;;;;;143733;564;46012;-52
2021/08/02 03:45:00;;;;;;;31.55;11.68;;;;;;;;;;143730;585;46020;-53
2021/08/02 03:47:27;;;;;;;29.73;11.80;;;;;;;;;;143729;652;46020;-53
2021/08/02 03:49:55;;;;;;;23.33;11.88;;;;;;;;;;143727;594;46021;-54
2021/08/02 03:52:23;;;;;;;25.75;10.95;;;;;;;;;;143731;595;46012;-53
2021/08/02 03:54:50;;;;;;;22.40;10.50;;;;;;;;;;143730;599;46020;-53
2021/08/02 03:57:18;;;;;;;26.40;11.27;;;;;;;;;;143728;597;46021;-53
2021/08/02 03:59:47;;;;;;;41.05;12.32;;;;;;;;;;143730;596;45020;-54
2021/08/02 04:02:15;;;;;;;25.45;11.80;;;;;;;;;;143733;599;46020;-53
2021/08/02 04:04:42;;;;;;;25.23;11.00;;;;;;;;;;143727;585;46021;-52
2021/08/02 04:07:09;;;;;;;24.95;11.20;;;;;;;;;;143729;589;46010;-53
2021/08/02 04:09:36;;;;;;;26.48;11.25;;;;;;;;;;143728;572;46020;-53
2021/08/02 04:12:03;;;;;;;26.55;11.30;;;;;;;;;;143732;594;46012;-53
2021/08/02 04:14:30;;;;;;;24.75;10.85;;;;;;;;;;143724;579;47022;-52
2021/08/02 04:16:57;;;;;;;33.42;11.82;;;;;;;;;;143729;662;46010;-53
2021/08/02 04:19:24;;;;;;;36.78;12.45;;;;;;;;;;143728;576;46021;-53
2021/08/02 04:21:51;;;;;;;22.40;11.23;;;;;;;;;;143732;566;46012;-53
2021/08/02 04:24:18;;;;;;;29.45;11.38;;;;;;;;;;143730;682;46020;-52
2021/08/02 04:26:45;;;;;;;43.40;13.43;;;;;;;;;;143729;594;46011;-53
2021/08/02 04:29:13;;;;;;;39.88;12.48;;;;;;;;;;143730;593;46018;-53
2021/08/02 04:31:40;;;;;;;33.40;13.43;;;;;;;;;;143732;566;46020;-53
2021/08/02 04:34:07;;;;;;;60.60;16.67;;;;;;;;;;143728;629;46022;-53
2021/08/02 04:36:34;;;;;;;38.60;13.57;;;;;;;;;;143729;604;46010;-53
2021/08/02 04:39:02;;;;;;;25.73;13.18;;;;;;;;;;143730;609;46018;-52
2021/08/02 04:41:29;;;;;;;38.35;15.07;;;;;;;;;;143733;571;46012;-53
2021/08/02 04:43:56;;;;;;;45.90;16.10;;;;;;;;;;143730;629;46020;-53
2021/08/02 04:46:23;;;;;;;49.17;16.70;;;;;;;;;;143729;645;46010;-52
2021/08/02 04:48:50;;;;;;;55.50;23.15;;;;;;;;;;143730;603;46019;-53
2021/08/02 04:51:17;;;;;;;38.92;13.48;;;;;;;;;;143732;594;46020;-53
2021/08/02 04:53:45;;;;;;;47.85;18.30;;;;;;;;;;143730;638;46020;-53
2021/08/02 04:56:12;;;;;;;34.75;17.80;;;;;;;;;;143730;570;46021;-52
2021/08/02 04:58:39;;;;;;;59.30;22.83;;;;;;;;;;143730;598;46018;-52
2021/08/02 05:01:06;;;;;;;37.90;14.70;;;;;;;;;;143732;565;46012;-52
2021/08/02 05:03:33;;;;;;;47.72;16.45;;;;;;;;;;143729;576;46021;-53
2021/08/02 05:06:00;;;;;;;40.15;15.35;;;;;;;;;;143729;693;46914;-52
2021/08/02 05:08:27;;;;;;;47.78;16.00;;;;;;;;;;143730;654;46010;-53
2021/08/02 05:10:55;;;;;;;49.88;16.95;;;;;;;;;;143732;585;46012;-53
2021/08/02 05:13:22;;;;;;;43.63;13.85;;;;;;;;;;143729;626;46023;-53
2021/08/02 05:15:49;;;;;;;41.92;14.77;;;;;;;;;;143728;569;46020;-53
2021/08/02 05:18:16;;;;;;;40.95;14.52;;;;;;;;;;143730;606;46021;-52
2021/08/02 05:20:43;;;;;;;32.20;13.07;;;;;;;;;;143733;583;46010;-53
2021/08/02 05:23:11;;;;;;;39.65;14.32;;;;;;;;;;143728;571;47010;-52
2021/08/02 05:25:38;;;;;;;39.42;14.65;;;;;;;;;;143727;581;47010;-52
2021/08/02 05:28:05;;;;;;;46.83;15.50;;;;;;;;;;143726;585;46020;-53
2021/08/02 05:30:32;;;;;;;35.38;13.45;;;;;;;;;;143733;632;46020;-52
2021/08/02 05:32:59;;;;;;;34.88;14.00;;;;;;;;;;143730;578;46021;-52
2021/08/02 05:35:27;;;;;;;31.17;15.05;;;;;;;;;;143729;581;46010;-52
2021/08/02 05:37:54;;;;;;;41.05;14.60;;;;;;;;;;143728;636;46018;-52
2021/08/02 05:40:21;;;;;;;36.50;14.30;;;;;;;;;;143731;581;46013;-53
2021/08/02 05:42:48;;;;;;;43.60;13.35;;;;;;;;;;143731;583;46020;-52
2021/08/02 05:45:16;;;;;;;58.28;18.20;;;;;;;;;;143729;604;46010;-52
2021/08/02 05:47:43;;;;;;;46.17;18.98;;;;;;;;;;143730;612;46010;-52
2021/08/02 05:50:10;;;;;;;52.67;17.37;;;;;;;;;;143733;603;46021;-52
2021/08/02 05:52:38;;;;;;;60.78;17.33;;;;;;;;;;143730;579;46020;-52
2021/08/02 05:55:06;;;;;;;67.28;19.62;;;;;;;;;;143729;570;46010;-52
2021/08/02 05:57:33;;;;;;;59.90;19.50;;;;;;;;;;143731;610;46018;-53
2021/08/02 06:00:00;;;;;;;52.08;17.12;;;;;;;;;;143733;594;46012;-53
2021/08/02 06:02:27;;;;;;;44.58;17.77;;;;;;;;;;143730;577;46021;-52
2021/08/02 06:04:54;;;;;;;45.12;17.67;;;;;;;;;;143729;578;46010;-53
2021/08/02 06:07:23;;;;;;;47.88;17.50;;;;;;;;;;143729;597;46018;-53
2021/08/02 06:09:51;;;;;;;48.67;19.05;;;;;;;;;;143729;636;46012;-53
2021/08/02 06:12:18;;;;;;;49.42;17.10;;;;;;;;;;143732;602;46021;-52
2021/08/02 06:14:45;;;;;;;47.40;17.92;;;;;;;;;;143729;600;46020;-52
2021/08/02 06:17:12;;;;;;;39.22;15.95;;;;;;;;;;143728;574;46019;-52
2021/08/02 06:19:43;;;;;;;43.58;14.60;;;;;;;;;;143730;707;46021;-52
2021/08/02 06:22:11;;;;;;;44.22;14.50;;;;;;;;;;143729;630;46022;-53
2021/08/02 06:24:38;;;;;;;39.50;15.40;;;;;;;;;;143728;585;46021;-52
2021/08/02 06:27:05;;;;;;;32.30;15.40;;;;;;;;;;143729;786;46021;-52
2021/08/02 06:29:32;;;;;;;33.85;13.55;;;;;;;;;;143730;689;46020;-52
2021/08/02 06:31:59;;;;;;;32.65;13.95;;;;;;;;;;143730;602;46021;-52
2021/08/02 06:34:26;;;;;;;39.55;14.75;;;;;;;;;;143728;660;46021;-53
2021/08/02 06:36:53;;;;;;;35.88;14.82;;;;;;;;;;143730;585;46018;-52
2021/08/02 06:39:20;;;;;;;31.58;14.07;;;;;;;;;;143730;589;46013;-52
2021/08/02 06:41:47;;;;;;;40.12;14.35;;;;;;;;;;143729;637;46021;-53
2021/08/02 06:44:15;;;;;;;34.28;14.35;;;;;;;;;;143729;571;46010;-53
2021/08/02 06:46:42;;;;;;;41.60;14.35;;;;;;;;;;143729;593;46019;-53
2021/08/02 06:49:09;;;;;;;38.03;14.95;;;;;;;;;;143732;591;46012;-52
2021/08/02 06:51:36;;;;;;;31.70;12.95;;;;;;;;;;143729;598;47020;-52
2021/08/02 06:54:04;;;;;;;28.48;13.38;;;;;;;;;;143727;609;46010;-52
2021/08/02 06:56:31;;;;;;;38.67;13.52;;;;;;;;;;143728;633;46021;-52
2021/08/02 06:58:58;;;;;;;32.40;12.75;;;;;;;;;;143730;656;46012;-52
2021/08/02 07:01:25;;;;;;;26.52;11.50;;;;;;;;;;143728;569;46022;-52
2021/08/02 07:03:52;;;;;;;28.73;11.73;;;;;;;;;;143726;581;46010;-52
2021/08/02 07:06:19;;;;;;;22.60;11.30;;;;;;;;;;143728;572;46018;-51
2021/08/02 07:08:46;;;;;;;31.77;11.73;;;;;;;;;;143728;575;47011;-52
2021/08/02 07:11:13;;;;;;;26.50;11.52;;;;;;;;;;143727;572;46021;-52
2021/08/02 07:13:40;;;;;;;35.35;13.10;;;;;;;;;;143725;583;47010;-52
2021/08/02 07:16:07;;;;;;;29.65;11.45;;;;;;;;;;143728;593;46019;-52
2021/08/02 07:18:35;;;;;;;22.70;11.45;;;;;;;;;;143730;597;46021;-52
2021/08/02 07:21:02;;;;;;;24.60;12.25;;;;;;;;;;143728;572;46020;-52
2021/08/02 07:23:29;;;;;;;20.02;10.77;;;;;;;;;;143725;565;47010;-51
2021/08/02 07:25:56;;;;;;;26.62;11.57;;;;;;;;;;143728;571;46018;-51
2021/08/02 07:28:23;;;;;;;30.15;11.55;;;;;;;;;;143730;569;46020;-51
2021/08/02 07:30:50;;;;;;;28.85;12.23;;;;;;;;;;143727;641;47020;-52
2021/08/02 07:33:17;;;;;;;23.33;12.13;;;;;;;;;;143727;633;46010;-52
2021/08/02 07:35:45;;;;;;;32.60;12.48;;;;;;;;;;143728;566;45020;-52
2021/08/02 07:38:12;;;;;;;32.67;12.65;;;;;;;;;;143728;646;46020;-52
2021/08/02 07:40:39;;;;;;;32.78;12.00;;;;;;;;;;143727;617;46021;-52
2021/08/02 07:43:06;;;;;;;34.67;11.80;;;;;;;;;;143724;641;46027;-52
2021/08/02 07:45:34;;;;;;;26.80;11.50;;;;;;;;;;143727;610;46020;-52
2021/08/02 07:48:02;;;;;;;31.10;12.27;;;;;;;;;;143730;644;46010;-52
2021/08/02 07:50:29;;;;;;;44.63;12.57;;;;;;;;;;143727;643;46022;-51
2021/08/02 07:52:55;;;;;;;27.73;11.80;;;;;;;;;;143728;582;46010;-52
2021/08/02 07:55:22;;;;;;;26.77;12.25;;;;;;;;;;143726;667;46029;-52
2021/08/02 07:57:50;;;;;;;35.53;13.77;;;;;;;;;;143731;618;46010;-52
2021/08/02 08:00:17;;;;;;;27.48;12.52;;;;;;;;;;143728;662;46020;-51
2021/08/02 08:02:47;;;;;;;29.77;13.07;;;;;;;;;;143725;644;47010;-52
2021/08/02 08:05:15;;;;;;;29.52;12.73;;;;;;;;;;143729;600;46020;-52
2021/08/02 08:07:50;;;;;;;31.65;12.55;;;;;;;;;;143723;569;51010;-52
2021/08/02 08:10:22;;;;;;;31.20;13.45;;;;;;;;;;143727;572;46023;-52
2021/08/02 08:12:49;;;;;;;29.00;12.95;;;;;;;;;;143727;569;46010;-52
2021/08/02 08:15:18;;;;;;;32.10;13.23;;;;;;;;;;143727;573;46020;-51
2021/08/02 08:17:46;;;;;;;33.40;12.75;;;;;;;;;;143726;565;46021;-52
2021/08/02 08:20:15;;;;;;;33.40;12.55;;;;;;;;;;143728;566;46020;-52
2021/08/02 08:22:42;;;;;;;33.75;12.25;;;;;;;;;;143726;617;46010;-52
2021/08/02 08:25:10;;;;;;;36.22;12.65;;;;;;;;;;143726;628;46021;-51
2021/08/02 08:27:37;;;;;;;25.50;12.00;;;;;;;;;;143732;574;46010;-52
2021/08/02 08:30:06;;;;;;;22.48;12.23;;;;;;;;;;143728;601;46020;-52
2021/08/02 08:32:33;;;;;;;27.52;12.52;;;;;;;;;;143726;586;46011;-52
2021/08/02 08:35:00;;;;;;;25.62;11.88;;;;;;;;;;143726;571;46020;-52
2021/08/02 08:37:27;;;;;;;30.92;11.90;;;;;;;;;;143730;678;46010;-52
2021/08/02 08:39:54;;;;;;;31.27;12.23;;;;;;;;;;143728;579;46021;-52
2021/08/02 08:42:21;;;;;;;32.33;10.90;;;;;;;;;;143727;575;46010;-52
2021/08/02 08:44:48;;;;;;;39.50;12.65;;;;;;;;;;143725;659;46020;-51
2021/08/02 08:47:15;;;;;;;35.38;11.43;;;;;;;;;;143729;650;46021;-52
2021/08/02 08:49:42;;;;;;;31.62;12.32;;;;;;;;;;143727;601;46020;-51
2021/08/02 08:52:09;;;;;;;22.17;12.13;;;;;;;;;;143724;706;47010;-52
2021/08/02 08:54:37;;;;;;;24.92;11.23;;;;;;;;;;143727;605;46021;-51
2021/08/02 08:57:07;;;;;;;29.67;10.70;;;;;;;;;;143730;608;46010;-52
2021/08/02 08:59:51;;;;;;;33.67;10.35;;;;;;;;;;143729;737;46020;-52
2021/08/02 09:02:26;;;;;;;26.25;10.15;;;;;;;;;;143725;577;46011;-51
2021/08/02 09:04:57;;;;;;;24.10;10.93;;;;;;;;;;143729;648;46020;-51
2021/08/02 09:07:39;;;;;;;31.15;11.68;;;;;;;;;;143733;602;45020;-51
2021/08/02 09:10:11;;;;;;;28.45;14.52;;;;;;;;;;143726;638;46023;-52
2021/08/02 09:12:49;;;;;;;26.33;11.02;;;;;;;;;;143726;585;46020;-52
2021/08/02 09:15:16;;;;;;;25.52;10.85;;;;;;;;;;143727;566;46020;-51
2021/08/02 09:17:43;;;;;;;31.80;10.85;;;;;;;;;;143731;686;46010;-52
2021/08/02 09:20:21;;;;;;;24.92;10.38;;;;;;;;;;143728;982;46020;-52
2021/08/02 09:22:49;;;;;;;21.50;10.23;;;;;;;;;;143724;645;46012;-52
2021/08/02 09:25:21;;;;;;;26.02;10.68;;;;;;;;;;143727;566;46021;-52
2021/08/02 09:27:50;;;;;;;36.80;10.93;;;;;;;;;;143727;601;48020;-52
2021/08/02 09:30:23;;;;;;;33.50;11.80;;;;;;;;;;143728;576;46020;-52
2021/08/02 09:33:16;;;;;;;31.05;10.82;;;;;;;;;;143727;589;46011;-52
2021/08/02 09:35:48;;;;;;;33.58;10.90;;;;;;;;;;143724;565;48026;-52
2021/08/02 09:38:16;;;;;;;31.80;10.52;;;;;;;;;;143728;571;47012;-52
2021/08/02 09:40:54;;;;;;;31.50;11.18;;;;;;;;;;143729;635;46020;-52
2021/08/02 09:43:24;;;;;;;21.37;9.75;;;;;;;;;;143728;595;46010;-51
2021/08/02 09:45:54;;;;;;;28.27;10.57;;;;;;;;;;143724;576;49012;-52
2021/08/02 09:48:33;;;;;;;22.17;9.50;;;;;;;;;;143729;613;47010;-53
2021/08/02 09:51:10;;;;;;;29.52;10.73;;;;;;;;;;143728;570;46020;-52
2021/08/02 09:53:43;;;;;;;20.85;9.23;;;;;;;;;;143727;631;46010;-52
2021/08/02 09:56:14;;;;;;;28.50;10.70;;;;;;;;;;143726;591;46021;-52
2021/08/02 09:58:42;;;;;;;27.92;9.65;;;;;;;;;;143730;590;46010;-53
2021/08/02 10:01:13;;;;;;;22.37;9.60;;;;;;;;;;143727;564;47021;-53
2021/08/02 10:03:40;;;;;;;27.70;9.30;;;;;;;;;;143726;595;47021;-52
2021/08/02 10:06:07;;;;;;;34.10;10.35;;;;;;;;;;143728;593;47010;-52
2021/08/02 10:08:35;;;;;;;26.23;9.57;;;;;;;;;;143732;590;45021;-54
2021/08/02 10:11:03;;;;;;;25.05;9.85;;;;;;;;;;143727;572;47020;-54
2021/08/02 10:13:37;;;;;;;23.73;10.05;;;;;;;;;;143728;588;46010;-52
2021/08/02 10:16:13;;;;;;;20.12;9.55;;;;;;;;;;143727;608;46022;-53
2021/08/02 10:18:46;;;;;;;26.92;10.48;;;;;;;;;;143729;571;46018;-54
2021/08/02 10:21:14;;;;;;;20.88;9.68;;;;;;;;;;143725;636;47010;-53
2021/08/02 10:23:41;;;;;;;23.30;9.77;;;;;;;;;;143727;682;46010;-54
2021/08/02 10:26:29;;;;;;;26.00;10.55;;;;;;;;;;143726;594;46020;-54
2021/08/02 10:28:58;;;;;;;19.77;9.38;;;;;;;;;;143730;595;46020;-53
2021/08/02 10:31:26;;;;;;;19.20;9.20;;;;;;;;;;143728;595;46021;-53
2021/08/02 10:33:55;;;;;;;20.23;9.50;;;;;;;;;;143725;695;46020;-53
2021/08/02 10:36:23;;;;;;;17.98;9.73;;;;;;;;;;143726;588;46020;-52
2021/08/02 10:38:52;;;;;;;26.98;9.63;;;;;;;;;;143730;673;46021;-53
2021/08/02 10:41:31;;;;;;;19.20;9.27;;;;;;;;;;143727;946;46020;-53
2021/08/02 10:44:10;;;;;;;26.20;9.80;;;;;;;;;;143727;603;46010;-53
2021/08/02 10:46:37;;;;;;;26.52;10.55;;;;;;;;;;143727;588;46021;-53
2021/08/02 10:49:12;;;;;;;23.05;10.30;;;;;;;;;;143730;565;46020;-53
2021/08/02 10:51:50;;;;;;;21.25;9.10;;;;;;;;;;143728;595;46020;-53
2021/08/02 10:54:18;;;;;;;23.83;9.98;;;;;;;;;;143726;575;46010;-53
2021/08/02 10:56:52;;;;;;;21.35;9.20;;;;;;;;;;143728;566;46020;-53
2021/08/02 10:59:20;;;;;;;22.20;8.77;;;;;;;;;;143729;566;46020;-53
2021/08/02 11:01:52;;;;;;;25.85;9.23;;;;;;;;;;143728;576;46021;-54
2021/08/02 11:04:20;;;;;;;25.45;9.43;;;;;;;;;;143729;580;46010;-53
2021/08/02 11:06:47;;;;;;;16.52;8.93;;;;;;;;;;143727;564;46020;-53
2021/08/02 11:09:15;;;;;;;27.40;10.45;;;;;;;;;;143730;596;46020;-54
2021/08/02 11:11:42;;;;;;;23.23;9.70;;;;;;;;;;143726;595;46020;-54
2021/08/02 11:14:22;;;;;;;21.25;9.68;;;;;;;;;;143727;640;46010;-53
2021/08/02 11:16:53;;;;;;;22.27;9.43;;;;;;;;;;143723;585;47010;-53
2021/08/02 11:19:31;;;;;;;21.87;9.30;;;;;;;;;;143731;581;46010;-54
2021/08/02 11:22:02;;;;;;;21.08;9.05;;;;;;;;;;143726;580;46022;-53
2021/08/02 11:24:32;;;;;;;23.65;8.48;;;;;;;;;;143727;570;46010;-53
2021/08/02 11:27:01;;;;;;;24.67;9.13;;;;;;;;;;143727;584;46020;-53
2021/08/02 11:29:30;;;;;;;23.35;8.73;;;;;;;;;;143730;573;46039;-53
2021/08/02 11:32:09;;;;;;;25.62;9.43;;;;;;;;;;143727;600;47045;-53
2021/08/02 11:34:37;;;;;;;23.75;8.77;;;;;;;;;;143727;604;46010;-53
2021/08/02 11:37:06;;;;;;;21.50;8.43;;;;;;;;;;143729;570;46018;-53
2021/08/02 11:39:36;;;;;;;17.12;8.75;;;;;;;;;;143730;570;46011;-53
2021/08/02 11:42:08;;;;;;;29.27;9.48;;;;;;;;;;143726;571;47018;-53
2021/08/02 11:44:48;;;;;;;21.23;8.73;;;;;;;;;;143726;577;46010;-54
2021/08/02 11:47:22;;;;;;;24.20;8.88;;;;;;;;;;143728;596;46019;-52
2021/08/02 11:49:54;;;;;;;23.52;8.80;;;;;;;;;;143731;580;46010;-53
2021/08/02 11:52:23;;;;;;;24.35;9.00;;;;;;;;;;143728;625;46019;-53
2021/08/02 11:55:00;;;;;;;23.48;8.70;;;;;;;;;;143727;619;46010;-53
2021/08/02 11:57:28;;;;;;;18.62;8.57;;;;;;;;;;143727;608;46018;-54
2021/08/02 11:59:57;;;;;;;21.85;8.70;;;;;;;;;;143731;583;46010;-53
2021/08/02 12:02:50;;;;;;;18.25;8.45;;;;;;;;;;143728;564;46018;-53
2021/08/02 12:05:27;;;;;;;19.40;9.43;;;;;;;;;;143726;564;46010;-54
2021/08/02 12:07:55;;;;;;;24.60;8.85;;;;;;;;;;143726;595;46018;-54
2021/08/02 12:10:24;;;;;;;19.05;8.70;;;;;;;;;;143730;585;46023;-53
2021/08/02 12:13:10;;;;;;;28.48;9.40;;;;;;;;;;143728;623;46018;-53
2021/08/02 12:15:48;;;;;;;22.27;9.82;;;;;;;;;;143727;594;46010;-54
2021/08/02 12:18:28;;;;;;;23.00;9.70;;;;;;;;;;143728;564;46018;-52
2021/08/02 12:21:09;;;;;;;22.98;8.85;;;;;;;;;;143732;571;45022;-53
2021/08/02 12:23:36;;;;;;;19.40;8.90;;;;;;;;;;143728;584;46019;-52
2021/08/02 12:26:17;;;;;;;23.90;8.70;;;;;;;;;;143727;604;46010;-53
2021/08/02 12:28:44;;;;;;;24.40;8.25;;;;;;;;;;143728;633;46018;-53
2021/08/02 12:31:17;;;;;;;15.50;8.60;;;;;;;;;;143727;632;46023;-52
2021/08/02 12:33:47;;;;;;;25.98;9.38;;;;;;;;;;143729;684;46018;-52
2021/08/02 12:36:15;;;;;;;27.67;10.27;;;;;;;;;;143728;594;46010;-52
2021/08/02 12:38:46;;;;;;;18.27;8.88;;;;;;;;;;143727;565;46019;-53
2021/08/02 12:41:14;;;;;;;32.47;9.63;;;;;;;;;;143732;589;45022;-53
2021/08/02 12:43:44;;;;;;;17.17;9.70;;;;;;;;;;143729;620;46018;-53
2021/08/02 12:46:12;;;;;;;23.92;9.02;;;;;;;;;;143728;650;46010;-53
2021/08/02 12:48:40;;;;;;;25.95;9.68;;;;;;;;;;143727;670;46018;-53
2021/08/02 12:51:08;;;;;;;23.80;9.80;;;;;;;;;;143730;589;46022;-53
2021/08/02 12:53:35;;;;;;;21.62;9.63;;;;;;;;;;143728;597;46019;-53
2021/08/02 12:56:02;;;;;;;24.25;10.10;;;;;;;;;;143727;570;46010;-53
2021/08/02 12:58:29;;;;;;;21.25;9.32;;;;;;;;;;143727;581;46018;-53
2021/08/02 13:00:56;;;;;;;23.80;8.65;;;;;;;;;;143729;591;46023;-53
2021/08/02 13:03:23;;;;;;;31.05;9.70;;;;;;;;;;143729;569;46018;-53
2021/08/02 13:05:50;;;;;;;20.75;10.13;;;;;;;;;;143727;569;46010;-53
2021/08/02 13:08:18;;;;;;;28.10;9.63;;;;;;;;;;143727;609;46019;-53
2021/08/02 13:10:45;;;;;;;24.05;9.00;;;;;;;;;;143731;604;46010;-53
2021/08/02 13:13:12;;;;;;;24.35;9.90;;;;;;;;;;143728;602;46018;-52
2021/08/02 13:15:39;;;;;;;22.75;8.68;;;;;;;;;;143728;646;46010;-53
2021/08/02 13:18:07;;;;;;;27.92;9.45;;;;;;;;;;143727;622;46018;-53
2021/08/02 13:20:34;;;;;;;20.23;8.80;;;;;;;;;;143730;563;46022;-52
2021/08/02 13:23:29;;;;;;;28.02;9.43;;;;;;;;;;143729;624;46020;-53
2021/08/02 13:28:33;;;;;;;25.17;9.20;;;;;;;;;;143728;597;46018;-52
2021/08/02 13:31:00;;;;;;;27.52;9.77;;;;;;;;;;143732;629;46011;-53
2021/08/02 13:33:27;;;;;;;23.10;8.60;;;;;;;;;;143729;573;46018;-53
2021/08/02 13:35:56;;;;;;;20.70;8.32;;;;;;;;;;143727;589;46010;-53
2021/08/02 13:38:24;;;;;;;31.00;9.07;;;;;;;;;;143729;570;46019;-52
2021/08/02 13:40:51;;;;;;;25.37;8.30;;;;;;;;;;143732;589;46022;-53
2021/08/02 13:43:18;;;;;;;15.80;7.97;;;;;;;;;;143729;617;46018;-53
2021/08/02 13:45:45;;;;;;;21.90;8.90;;;;;;;;;;143725;601;46011;-53
2021/08/02 13:48:13;;;;;;;28.58;8.43;;;;;;;;;;143728;580;46018;-52
2021/08/02 13:50:42;;;;;;;24.05;7.75;;;;;;;;;;143731;592;46010;-53
2021/08/02 13:53:09;;;;;;;18.85;8.00;;;;;;;;;;143728;606;46019;-52
2021/08/02 13:55:36;;;;;;;23.85;7.90;;;;;;;;;;143729;604;46010;-53
2021/08/02 13:58:03;;;;;;;21.70;8.43;;;;;;;;;;143728;571;46018;-53
2021/08/02 14:00:30;;;;;;;29.45;7.90;;;;;;;;;;143731;621;46023;-52
2021/08/02 14:02:57;;;;;;;16.98;7.40;;;;;;;;;;143729;598;46018;-53
2021/08/02 14:05:25;;;;;;;18.45;7.35;;;;;;;;;;143727;564;46010;-52
2021/08/02 14:07:53;;;;;;;19.27;7.62;;;;;;;;;;143728;612;46018;-52
2021/08/02 14:10:20;;;;;;;22.87;8.07;;;;;;;;;;143733;648;45029;-52
2021/08/02 14:12:50;;;;;;;20.67;7.53;;;;;;;;;;143731;569;46018;-52
2021/08/02 14:15:17;;;;;;;21.00;7.60;;;;;;;;;;143731;571;46010;-53
2021/08/02 14:18:07;;;;;;;20.90;7.62;;;;;;;;;;143730;638;46018;-52
2021/08/02 14:20:36;;;;;;;21.35;8.00;;;;;;;;;;143730;620;46022;-53
2021/08/02 14:23:04;;;;;;;25.40;8.45;;;;;;;;;;143729;614;46019;-53
2021/08/02 14:25:32;;;;;;;18.50;7.55;;;;;;;;;;143728;585;46010;-53
2021/08/02 14:27:58;;;;;;;20.12;8.18;;;;;;;;;;143728;633;46018;-53
2021/08/02 14:30:25;;;;;;;20.58;7.97;;;;;;;;;;143730;672;46023;-53
2021/08/02 14:32:54;;;;;;;19.02;7.47;;;;;;;;;;143728;578;47018;-54
2021/08/02 14:35:21;;;;;;;16.75;6.90;;;;;;;;;;143727;565;46010;-54
2021/08/02 14:37:51;;;;;;;17.58;6.85;;;;;;;;;;143728;607;46019;-53
2021/08/02 14:40:20;;;;;;;22.23;7.62;;;;;;;;;;143729;564;46022;-53
2021/08/02 14:42:47;;;;;;;26.15;7.40;;;;;;;;;;143728;626;47018;-54